Assumption Island Airport

Jump to: basic info | weather | runways | comments

Related pages: nearby airports | nearby navaids | notams | map

Basic information (top)

Codes: FSAS
Location: lon -9.742220, lat 46.506802, elev 10 ft / 3 m msl
Status: small_airport

Weather (top)

Current conditions for Prince Said Ibrahim International Airport 219nm (406km) WSW (rec'd 2014/04/17 09:00Z):

FMCH 170900Z 20015KT 9999 FEW022TCU SCT030 31/24 Q1013 NOSIG

Airport forecast for Prince Said Ibrahim International Airport 219nm (406km) WSW (rec'd 2014/04/17 06:00Z):

TAF FMCH 170500Z 1706/1812 20010KT 9999 FEW020 PROB40 
      TEMPO 1710/1716 4000 SHRA FEW020TCU BKN030 
      BECMG 1718/1720 10003KT

Runways (top)

13/31: 3,963 x 75 ft (1,208 x 23 m) — paved — not lighted

Latest comments (top)

No comments yet for Assumption Island Airport

More... (top)

See also NOTAMs and nearby airports and navaids, or visit the Assumption Island Airport page at the main OurAirports website..